KAXS/AXS METAR and TAF weather

Enter ICAO airport designator
Station Type Date Time Source
KAXS METAR 2020/04/05 05:55 UTC NOAA

KAXS 050555Z AUTO 12007KT 10SM OVC030 08/04 A3008 RMK AO2 T00750042 10127 20071 401310026


Station Type Date Time Source
KAXS Decoded METAR 2020/04/05 05:55 UTC NOAA

Altus, Altus/Quartz Mountain Regional Airport, OK, United States (KAXS) 34-41-55N 099-20-17W
Apr 05, 2020 - 01:55 AM EDT / 2020.04.05 0555 UTC
Wind: from the ESE (120 degrees) at 8 MPH (7 KT):0
Visibility: 10 mile(s):0
Sky conditions: overcast
Temperature: 45.5 F (7.5 C)
Dew Point: 39.6 F (4.2 C)
Relative Humidity: 79%
Pressure (altimeter): 30.08 in. Hg (1018 hPa)
ob: KAXS 050555Z AUTO 12007KT 10SM OVC030 08/04 A3008 RMK AO2 T00750042 10127 20071 401310026
cycle: 6

Station Type Date Time Source
KAXS TAF UTC NOAA

Error!

Example: see airport list